Terminal Aerodrome Forecast
Issued by NWS Cleveland, OH

Home | Current Version | Previous Version | Graphics & Text | Print | Product List | Glossary Off
Versions: 1 2 3 4 5 6 7 8 9 10 11 12 13 14 15 16 17 18 19 20 21 22 23 24

758
FTUS41 KCLE 230915 AAB
TAFERI
TAF AMD
KERI 230915Z 2309/2406 19010KT P6SM BKN040 OVC080
     FM231500 22014G22KT 6SM -SHRA OVC025
     FM232100 23020G30KT 5SM -SHRASN OVC012
     FM240000 26015G25KT 3SM -SHSN SCT008 OVC012=

USA.gov is the U.S. government's official web portal to all federal, state and local government web resources and services.